Crosbyton, Texas
Current Conditions -  °F | °C
As of 11:17 PM on Saturday 20 Dec 2014 (Local Time) from KLBB Reporting Station
Haze Haze  
Wind Chill: 35°   Ceiling: 900
Heat Index: 42°   Visibility: 5mi
Dew Point: 40°   Wind: 13mph
Humidity: 92%   Direction: 170°S
Pressure: 30.02"   Gusts: NA
Location:  33.66°N, 101.24°W
Report Text: KLBB 210517Z 17011KT 5SM BR OVC009 06/04 A3002 RMK AO2 T00560044
Loading
Personal Weather Stations






























Interactive Weather Map New forecast layout! Learn more

10-Day Weather Forecast

Advertisements
Track Severe Weather on mobile